Time;durP1;ratioP1;P1;durP2;ratioP2;P2;SDS_P1;SDS_P2;PMS_P1;PMS_P2;Temp;Humidity;BMP_temperature;BMP_pressure;BME280_temperature;BME280_humidity;BME280_pressure;Samples;Min_cycle;Max_cycle;Signal;HPM_P1;HPM_P2
2023/09/07 03:02:42;;;;;;;;;;;17.80;99.90;;;;;;4991672;28;19925;-78
2023/09/07 03:05:08;;;;;;;;;;;17.80;99.90;;;;;;4993605;28;20279;-78
2023/09/07 03:07:33;;;;;;;;;;;17.80;99.90;;;;;;4996925;28;19992;-78
2023/09/07 03:09:59;;;;;;;;;;;17.70;99.90;;;;;;4996536;28;20318;-78
2023/09/07 03:12:25;;;;;;;;;;;17.70;99.90;;;;;;4978553;28;20113;-79
2023/09/07 03:14:50;;;;;;;;;;;17.60;99.90;;;;;;4977565;28;19922;-78
2023/09/07 03:17:16;;;;;;;;;;;17.60;99.90;;;;;;4977154;28;19930;-79
2023/09/07 03:19:42;;;;;;;;;;;17.50;99.90;;;;;;4977200;28;19976;-79
2023/09/07 03:22:08;;;;;;;;;;;17.50;99.90;;;;;;4976838;28;19926;-78
2023/09/07 03:24:34;;;;;;;;;;;17.50;99.90;;;;;;4976869;28;20426;-78
2023/09/07 03:27:00;;;;;;;;;;;17.50;99.90;;;;;;4960762;28;19986;-77
2023/09/07 03:29:25;;;;;;;;;;;17.50;99.90;;;;;;4978291;28;20310;-78
2023/09/07 03:31:51;;;;;;;;;;;17.40;99.90;;;;;;4976993;28;20364;-81
2023/09/07 03:34:16;;;;;;;;;;;17.40;99.90;;;;;;4976940;28;19922;-81
2023/09/07 03:36:42;;;;;;;;;;;17.40;99.90;;;;;;4977049;28;20053;-77
2023/09/07 03:39:07;;;;;;;;;;;17.30;99.90;;;;;;4976716;28;20434;-81
2023/09/07 03:41:34;;;;;;;;;;;17.30;99.90;;;;;;4976585;28;19972;-78
2023/09/07 03:43:59;;;;;;;;;;;17.20;99.90;;;;;;4976624;28;19922;-79
2023/09/07 03:46:26;;;;;;;;;;;17.20;99.90;;;;;;4976819;28;19973;-77
2023/09/07 03:48:51;;;;;;;;;;;17.20;99.90;;;;;;4976717;28;19922;-79
2023/09/07 03:51:17;;;;;;;;;;;17.10;99.90;;;;;;4976916;28;19976;-80
2023/09/07 03:53:42;;;;;;;;;;;17.10;99.90;;;;;;4976341;28;19926;-78
2023/09/07 03:56:08;;;;;;;;;;;17.00;99.90;;;;;;4976317;28;19945;-81
2023/09/07 03:58:34;;;;;;;;;;;17.00;99.90;;;;;;4976273;28;19926;-82
2023/09/07 04:00:59;;;;;;;;;;;17.00;99.90;;;;;;4976126;28;20008;-81
2023/09/07 04:03:25;;;;;;;;;;;16.90;99.90;;;;;;4976330;28;19922;-81
2023/09/07 04:05:51;;;;;;;;;;;16.90;99.90;;;;;;4976071;28;20500;-79
2023/09/07 04:08:16;;;;;;;;;;;16.90;99.90;;;;;;4976071;28;19956;-80
2023/09/07 04:10:42;;;;;;;;;;;16.80;99.90;;;;;;4959985;28;20272;-80
2023/09/07 04:13:07;;;;;;;;;;;16.80;99.90;;;;;;4976017;28;19922;-78
2023/09/07 04:15:43;;;;;;;;;;;16.80;99.90;;;;;;4975824;28;19922;-78
2023/09/07 04:18:09;;;;;;;;;;;16.70;99.90;;;;;;4977799;28;19922;-80
2023/09/07 04:20:35;;;;;;;;;;;16.70;99.90;;;;;;4975812;28;20383;-77
2023/09/07 04:23:00;;;;;;;;;;;16.70;99.90;;;;;;4975738;28;19922;-77
2023/09/07 04:25:26;;;;;;;;;;;16.70;99.90;;;;;;4975882;28;19930;-79
2023/09/07 04:27:51;;;;;;;;;;;16.60;99.90;;;;;;4976036;28;19926;-79
2023/09/07 04:30:17;;;;;;;;;;;16.60;99.90;;;;;;4975892;28;19922;-79
2023/09/07 04:32:43;;;;;;;;;;;16.60;99.90;;;;;;4959924;28;20376;-80
2023/09/07 04:35:08;;;;;;;;;;;16.60;99.90;;;;;;4975729;28;20391;-78
2023/09/07 04:37:34;;;;;;;;;;;16.50;99.90;;;;;;4975548;28;19922;-80
2023/09/07 04:39:59;;;;;;;;;;;16.50;99.90;;;;;;4975761;28;19922;-81
2023/09/07 04:42:25;;;;;;;;;;;16.60;99.90;;;;;;4975349;28;20307;-80
2023/09/07 04:44:50;;;;;;;;;;;16.50;99.90;;;;;;4975376;28;19922;-79
2023/09/07 04:47:16;;;;;;;;;;;16.50;99.90;;;;;;4975314;28;20025;-78
2023/09/07 04:49:42;;;;;;;;;;;16.50;99.90;;;;;;4975188;28;19922;-79
2023/09/07 04:52:08;;;;;;;;;;;16.50;99.90;;;;;;4975148;28;19964;-77
2023/09/07 04:54:34;;;;;;;;;;;16.40;99.90;;;;;;4975254;28;19929;-79
2023/09/07 04:56:59;;;;;;;;;;;16.50;99.90;;;;;;4959071;28;19926;-79
2023/09/07 04:59:25;;;;;;;;;;;16.40;99.90;;;;;;4975211;28;19922;-77
2023/09/07 05:01:50;;;;;;;;;;;16.40;99.90;;;;;;4975298;28;19977;-77
2023/09/07 05:04:18;;;;;;;;;;;16.40;99.90;;;;;;4974535;28;20411;-80
2023/09/07 05:06:43;;;;;;;;;;;16.30;99.90;;;;;;4975074;28;19973;-78
2023/09/07 05:09:09;;;;;;;;;;;16.30;99.90;;;;;;4974954;28;19922;-81
2023/09/07 05:11:35;;;;;;;;;;;16.30;99.90;;;;;;4974775;28;19969;-79
2023/09/07 05:14:01;;;;;;;;;;;16.30;99.90;;;;;;4958905;28;20383;-79
2023/09/07 05:16:27;;;;;;;;;;;16.30;99.90;;;;;;4975028;28;19922;-79
2023/09/07 05:18:53;;;;;;;;;;;16.20;99.90;;;;;;4974718;28;19929;-80
2023/09/07 05:21:18;;;;;;;;;;;16.20;99.90;;;;;;4975871;28;19922;-79
2023/09/07 05:23:44;;;;;;;;;;;16.20;99.90;;;;;;4974811;28;19926;-76
2023/09/07 05:26:09;;;;;;;;;;;16.20;99.90;;;;;;4958598;28;19922;-78
2023/09/07 05:28:35;;;;;;;;;;;16.20;99.90;;;;;;4974271;28;19922;-80
2023/09/07 05:31:00;;;;;;;;;;;16.20;99.90;;;;;;4974843;28;20403;-78
2023/09/07 05:33:26;;;;;;;;;;;16.20;99.90;;;;;;4974591;28;19926;-80
2023/09/07 05:35:51;;;;;;;;;;;16.20;99.90;;;;;;4974770;28;19922;-78
2023/09/07 05:38:17;;;;;;;;;;;16.20;99.90;;;;;;4958522;28;20384;-77
2023/09/07 05:40:43;;;;;;;;;;;16.20;99.90;;;;;;4974921;28;19922;-79
2023/09/07 05:43:09;;;;;;;;;;;16.20;99.90;;;;;;4958287;28;19926;-78
2023/09/07 05:45:38;;;;;;;;;;;16.20;99.90;;;;;;4974818;28;19944;-78
2023/09/07 05:48:04;;;;;;;;;;;16.30;99.90;;;;;;4974568;28;19938;-81
2023/09/07 05:50:30;;;;;;;;;;;16.30;99.90;;;;;;4974494;28;20335;-80
2023/09/07 05:52:55;;;;;;;;;;;16.40;99.90;;;;;;4974405;28;20301;-78
2023/09/07 05:55:21;;;;;;;;;;;16.50;99.90;;;;;;4974444;28;19922;-79
2023/09/07 05:57:48;;;;;;;;;;;16.50;99.90;;;;;;4974447;28;19986;-78
2023/09/07 06:00:16;;;;;;;;;;;16.50;99.90;;;;;;4973395;28;20366;-77
2023/09/07 06:02:42;;;;;;;;;;;16.60;99.90;;;;;;4974182;28;19929;-76
2023/09/07 06:05:08;;;;;;;;;;;16.60;99.90;;;;;;4974022;28;19926;-79
2023/09/07 06:07:33;;;;;;;;;;;16.70;99.90;;;;;;4973869;28;19970;-80
2023/09/07 06:09:59;;;;;;;;;;;16.70;99.90;;;;;;4975575;28;19980;-77
2023/09/07 06:12:25;;;;;;;;;;;16.80;99.90;;;;;;4974405;28;19922;-78
2023/09/07 06:14:50;;;;;;;;;;;16.80;99.90;;;;;;4973720;28;19930;-78
2023/09/07 06:17:16;;;;;;;;;;;16.90;99.90;;;;;;4975605;28;19933;-77
2023/09/07 06:19:41;;;;;;;;;;;16.90;99.90;;;;;;4974213;28;19923;-78
2023/09/07 06:22:07;;;;;;;;;;;17.00;99.90;;;;;;4974434;28;19922;-77
2023/09/07 06:24:32;;;;;;;;;;;17.10;99.90;;;;;;4973995;28;19926;-77
2023/09/07 06:26:58;;;;;;;;;;;17.10;99.90;;;;;;4973833;28;19926;-81
2023/09/07 06:29:23;;;;;;;;;;;17.30;99.90;;;;;;4973743;28;19929;-77
2023/09/07 06:31:49;;;;;;;;;;;17.30;99.90;;;;;;4973569;28;19923;-82
2023/09/07 06:34:15;;;;;;;;;;;17.40;99.90;;;;;;4974627;28;19957;-79
2023/09/07 06:36:41;;;;;;;;;;;17.50;99.90;;;;;;4974628;28;19980;-79
2023/09/07 06:39:06;;;;;;;;;;;17.50;99.90;;;;;;4973727;28;19922;-79
2023/09/07 06:41:32;;;;;;;;;;;17.60;99.90;;;;;;4977033;28;19922;-79
2023/09/07 06:43:58;;;;;;;;;;;17.70;99.90;;;;;;4977577;28;19936;-77
2023/09/07 06:46:23;;;;;;;;;;;17.80;99.90;;;;;;4977861;28;19922;-79
2023/09/07 06:48:49;;;;;;;;;;;17.90;99.90;;;;;;4979451;28;19922;-80
2023/09/07 06:51:14;;;;;;;;;;;18.00;99.90;;;;;;4962100;28;20355;-79
2023/09/07 06:53:41;;;;;;;;;;;18.10;99.90;;;;;;4977965;28;19929;-77
2023/09/07 06:56:06;;;;;;;;;;;18.30;99.90;;;;;;4977687;28;19926;-79
2023/09/07 06:58:34;;;;;;;;;;;18.30;99.90;;;;;;4977557;28;20338;-78
2023/09/07 07:01:00;;;;;;;;;;;18.40;99.90;;;;;;4979125;28;20354;-78
2023/09/07 07:03:26;;;;;;;;;;;18.50;99.90;;;;;;4977094;28;19973;-78
2023/09/07 07:05:52;;;;;;;;;;;18.50;99.90;;;;;;4977566;28;20017;-80
2023/09/07 07:08:18;;;;;;;;;;;18.50;99.90;;;;;;4977226;28;20369;-78
2023/09/07 07:10:43;;;;;;;;;;;18.60;99.90;;;;;;4977642;28;19922;-77
2023/09/07 07:13:09;;;;;;;;;;;18.70;99.90;;;;;;4978352;28;19922;-77
2023/09/07 07:15:35;;;;;;;;;;;18.80;99.90;;;;;;4978509;28;20295;-78
2023/09/07 07:18:01;;;;;;;;;;;18.80;99.90;;;;;;4977054;28;19984;-78
2023/09/07 07:20:27;;;;;;;;;;;18.90;99.90;;;;;;4977138;28;19929;-78
2023/09/07 07:22:52;;;;;;;;;;;19.00;99.90;;;;;;4960659;28;19957;-77
2023/09/07 07:25:18;;;;;;;;;;;19.10;99.90;;;;;;4976976;28;19977;-78
2023/09/07 07:27:45;;;;;;;;;;;19.10;99.90;;;;;;4976653;28;19922;-76
2023/09/07 07:30:10;;;;;;;;;;;19.20;99.90;;;;;;4976641;28;20336;-78
2023/09/07 07:32:36;;;;;;;;;;;19.30;99.90;;;;;;4978185;28;19926;-78
2023/09/07 07:35:02;;;;;;;;;;;19.30;99.90;;;;;;4976806;28;19929;-80
2023/09/07 07:37:27;;;;;;;;;;;19.40;99.90;;;;;;4976517;28;20319;-80
2023/09/07 07:39:53;;;;;;;;;;;19.50;99.90;;;;;;4976815;28;20017;-77
2023/09/07 07:42:19;;;;;;;;;;;19.60;99.90;;;;;;4977052;28;19925;-78
2023/09/07 07:44:44;;;;;;;;;;;19.70;99.90;;;;;;4976544;28;20295;-79
2023/09/07 07:47:10;;;;;;;;;;;19.70;99.90;;;;;;4976733;28;20028;-79
2023/09/07 07:49:36;;;;;;;;;;;19.80;99.90;;;;;;4976431;28;20008;-79
2023/09/07 07:52:02;;;;;;;;;;;19.90;99.90;;;;;;4976097;28;20008;-79
2023/09/07 07:54:29;;;;;;;;;;;20.00;99.90;;;;;;4960238;28;19986;-78
2023/09/07 07:56:54;;;;;;;;;;;20.10;99.90;;;;;;4976253;28;19929;-81
2023/09/07 07:59:20;;;;;;;;;;;20.20;99.90;;;;;;4976160;28;19922;-78
2023/09/07 08:01:45;;;;;;;;;;;20.30;99.90;;;;;;4975944;28;20004;-78
2023/09/07 08:04:11;;;;;;;;;;;20.40;99.90;;;;;;4959812;28;19926;-77
2023/09/07 08:06:37;;;;;;;;;;;20.50;99.90;;;;;;4976020;28;19929;-79
2023/09/07 08:09:02;;;;;;;;;;;20.70;99.90;;;;;;4976038;28;19928;-76
2023/09/07 08:11:28;;;;;;;;;;;20.80;99.90;;;;;;4975867;28;19922;-78
2023/09/07 08:13:54;;;;;;;;;;;20.90;99.90;;;;;;4975958;28;20297;-78
2023/09/07 08:16:19;;;;;;;;;;;21.00;99.90;;;;;;4959858;28;19922;-79
2023/09/07 08:18:45;;;;;;;;;;;21.10;99.90;;;;;;4975846;28;19922;-80
2023/09/07 08:21:12;;;;;;;;;;;21.10;99.90;;;;;;4959657;28;19949;-78
2023/09/07 08:23:37;;;;;;;;;;;21.30;99.90;;;;;;4975661;28;20339;-80
2023/09/07 08:26:03;;;;;;;;;;;21.40;99.90;;;;;;4975675;28;20021;-79
2023/09/07 08:28:29;;;;;;;;;;;21.40;99.90;;;;;;4975736;28;19922;-80
2023/09/07 08:30:57;;;;;;;;;;;21.60;99.90;;;;;;4975587;28;19923;-77
2023/09/07 08:33:23;;;;;;;;;;;21.60;99.90;;;;;;4975554;28;19926;-79
2023/09/07 08:35:52;;;;;;;;;;;21.70;99.90;;;;;;4975871;28;19922;-80
2023/09/07 08:38:22;;;;;;;;;;;21.80;99.90;;;;;;4975436;28;19926;-79
2023/09/07 08:40:48;;;;;;;;;;;21.90;99.90;;;;;;4975388;28;19922;-81
2023/09/07 08:43:14;;;;;;;;;;;22.10;99.90;;;;;;4975628;28;19933;-78
2023/09/07 08:45:47;;;;;;;;;;;22.10;99.90;;;;;;4975406;28;19929;-78
2023/09/07 08:48:15;;;;;;;;;;;22.30;99.90;;;;;;4976890;28;20335;-78
2023/09/07 08:50:42;;;;;;;;;;;22.40;99.90;;;;;;4975164;28;19932;-79
2023/09/07 08:53:08;;;;;;;;;;;22.40;99.90;;;;;;4975279;28;19922;-78
2023/09/07 08:55:33;;;;;;;;;;;22.50;99.90;;;;;;4975586;28;19929;-77
2023/09/07 08:57:59;;;;;;;;;;;22.70;99.90;;;;;;4975393;28;20299;-79
2023/09/07 09:00:24;;;;;;;;;;;22.70;99.90;;;;;;4975045;28;19922;-78
2023/09/07 09:02:50;;;;;;;;;;;22.90;99.90;;;;;;4974453;28;20280;-79
2023/09/07 09:05:19;;;;;;;;;;;23.00;99.90;;;;;;4974972;28;19981;-78
2023/09/07 09:07:44;;;;;;;;;;;23.10;99.90;;;;;;4974870;28;19929;-79
2023/09/07 09:10:10;;;;;;;;;;;23.20;99.90;;;;;;4975007;28;19926;-80
2023/09/07 09:12:35;;;;;;;;;;;23.30;99.90;;;;;;4975065;28;19926;-79
2023/09/07 09:15:03;;;;;;;;;;;23.40;99.90;;;;;;4974761;28;20257;-77
2023/09/07 09:17:29;;;;;;;;;;;23.50;99.90;;;;;;4958668;28;19922;-78
2023/09/07 09:19:54;;;;;;;;;;;23.60;99.90;;;;;;4974623;28;19930;-78
2023/09/07 09:22:20;;;;;;;;;;;23.80;99.90;;;;;;4958479;28;19928;-79
2023/09/07 09:24:47;;;;;;;;;;;23.90;99.90;;;;;;4974564;28;19926;-77
2023/09/07 09:27:13;;;;;;;;;;;24.00;99.90;;;;;;4974546;28;20496;-77
2023/09/07 09:29:38;;;;;;;;;;;24.10;99.90;;;;;;4974458;28;19926;-79
2023/09/07 09:32:04;;;;;;;;;;;24.30;99.90;;;;;;4974418;28;19972;-80
2023/09/07 09:34:34;;;;;;;;;;;24.50;99.90;;;;;;4974721;28;19922;-79
2023/09/07 09:37:00;;;;;;;;;;;24.70;99.90;;;;;;4958701;28;19929;-77
2023/09/07 09:39:25;;;;;;;;;;;24.70;99.90;;;;;;4958353;28;19922;-77
2023/09/07 09:41:52;;;;;;;;;;;24.80;99.90;;;;;;4974335;28;19922;-79
2023/09/07 09:44:20;;;;;;;;;;;24.80;99.90;;;;;;4975778;28;19933;-76
2023/09/07 09:46:47;;;;;;;;;;;25.00;99.90;;;;;;4974374;28;19922;-79
2023/09/07 09:49:13;;;;;;;;;;;25.00;99.90;;;;;;4974221;28;20017;-79
2023/09/07 09:51:39;;;;;;;;;;;25.20;99.90;;;;;;4974116;28;19972;-78
2023/09/07 09:54:06;;;;;;;;;;;25.30;99.90;;;;;;4958067;28;19922;-79
2023/09/07 09:56:31;;;;;;;;;;;25.40;99.90;;;;;;4974225;28;19922;-79
2023/09/07 09:58:57;;;;;;;;;;;25.50;99.90;;;;;;4974188;28;20021;-79
2023/09/07 10:01:22;;;;;;;;;;;25.60;99.90;;;;;;4973997;28;19929;-79
2023/09/07 10:03:49;;;;;;;;;;;25.70;99.90;;;;;;4974071;28;19933;-79
2023/09/07 10:06:20;;;;;;;;;;;25.80;99.90;;;;;;4973880;28;19930;-78
2023/09/07 10:08:58;;;;;;;;;;;25.90;99.90;;;;;;4974558;28;19972;-77
2023/09/07 10:11:29;;;;;;;;;;;26.00;99.90;;;;;;4974224;28;19922;-79
2023/09/07 10:13:58;;;;;;;;;;;26.10;99.90;;;;;;4973692;28;19922;-77
2023/09/07 10:16:24;;;;;;;;;;;26.20;99.90;;;;;;4973894;28;20001;-78
2023/09/07 10:18:50;;;;;;;;;;;26.30;99.90;;;;;;4973808;28;19977;-80
2023/09/07 10:21:15;;;;;;;;;;;26.40;99.90;;;;;;4973944;28;20287;-80
2023/09/07 10:23:41;;;;;;;;;;;26.50;99.90;;;;;;4974079;28;20418;-78
2023/09/07 10:26:17;;;;;;;;;;;26.60;99.90;;;;;;4973834;28;20061;-79
2023/09/07 10:28:43;;;;;;;;;;;26.70;99.90;;;;;;4973757;28;20000;-78
2023/09/07 10:31:17;;;;;;;;;;;26.80;99.90;;;;;;4973660;28;20418;-79
2023/09/07 10:33:42;;;;;;;;;;;26.80;99.90;;;;;;4973993;28;19926;-78
2023/09/07 10:36:19;;;;;;;;;;;27.00;99.90;;;;;;4973881;28;20280;-78
2023/09/07 10:38:45;;;;;;;;;;;27.00;99.90;;;;;;4973900;28;19929;-79
2023/09/07 10:41:11;;;;;;;;;;;27.10;99.90;;;;;;4973964;28;19922;-79
2023/09/07 10:43:46;;;;;;;;;;;27.20;99.90;;;;;;4973885;28;19936;-78
2023/09/07 10:46:11;;;;;;;;;;;27.30;99.90;;;;;;4973753;28;19922;-78
2023/09/07 10:48:37;;;;;;;;;;;27.40;99.90;;;;;;4975001;28;19922;-79
2023/09/07 10:51:02;;;;;;;;;;;27.40;99.90;;;;;;4974916;28;20260;-79
2023/09/07 10:53:32;;;;;;;;;;;27.50;99.90;;;;;;4974734;28;20446;-80
2023/09/07 10:55:58;;;;;;;;;;;27.50;99.90;;;;;;4957277;28;19922;-80
2023/09/07 10:58:28;;;;;;;;;;;27.60;99.90;;;;;;4973408;28;19945;-80
2023/09/07 11:00:54;;;;;;;;;;;27.70;99.90;;;;;;4957116;28;20364;-80
2023/09/07 11:03:20;;;;;;;;;;;27.80;99.90;;;;;;4973537;28;19926;-79
2023/09/07 11:05:46;;;;;;;;;;;27.80;99.90;;;;;;4973450;28;20388;-79
2023/09/07 11:08:11;;;;;;;;;;;27.90;99.90;;;;;;4973573;28;19922;-80
2023/09/07 11:10:37;;;;;;;;;;;27.80;99.90;;;;;;4974497;28;19930;-80
2023/09/07 11:13:06;;;;;;;;;;;27.90;99.90;;;;;;4973460;28;19922;-80
2023/09/07 11:15:33;;;;;;;;;;;27.90;99.90;;;;;;4973319;28;19926;-79
2023/09/07 11:18:06;;;;;;;;;;;28.00;99.90;;;;;;4957090;28;19933;-81
2023/09/07 11:20:33;;;;;;;;;;;28.10;99.90;;;;;;4974692;28;19926;-81
2023/09/07 11:22:58;;;;;;;;;;;28.20;99.90;;;;;;4957599;28;20434;-80
2023/09/07 11:25:24;;;;;;;;;;;28.20;99.90;;;;;;4973227;28;19922;-81
2023/09/07 11:27:52;;;;;;;;;;;28.30;99.90;;;;;;4976559;28;19956;-79
2023/09/07 11:30:17;;;;;;;;;;;28.40;99.90;;;;;;4976659;28;19922;-80
2023/09/07 11:32:43;;;;;;;;;;;28.40;99.90;;;;;;4976641;28;19957;-78
2023/09/07 11:35:09;;;;;;;;;;;28.50;99.90;;;;;;4976584;28;19923;-79
2023/09/07 11:37:35;;;;;;;;;;;28.50;99.90;;;;;;4977812;28;19929;-81
2023/09/07 11:40:01;;;;;;;;;;;28.50;99.90;;;;;;4977710;28;19929;-79
2023/09/07 11:42:26;;;;;;;;;;;28.60;99.90;;;;;;4976451;28;19926;-78
2023/09/07 11:44:52;;;;;;;;;;;28.70;99.90;;;;;;4976291;28;19926;-80
2023/09/07 11:47:17;;;;;;;;;;;28.70;99.90;;;;;;4976291;28;19945;-79
2023/09/07 11:49:43;;;;;;;;;;;28.70;99.90;;;;;;4976334;28;19922;-78
2023/09/07 11:52:08;;;;;;;;;;;28.70;99.90;;;;;;4960460;28;19928;-80
2023/09/07 11:54:34;;;;;;;;;;;28.80;99.90;;;;;;4976328;28;19922;-80
2023/09/07 11:56:59;;;;;;;;;;;28.80;99.90;;;;;;4960104;28;20292;-80
2023/09/07 11:59:25;;;;;;;;;;;28.80;99.90;;;;;;4976217;28;19922;-81
2023/09/07 12:01:51;;;;;;;;;;;28.90;99.90;;;;;;4976270;28;19922;-81
2023/09/07 12:04:16;;;;;;;;;;;28.90;99.90;;;;;;4976142;28;20303;-80
2023/09/07 12:06:42;;;;;;;;;;;29.00;99.90;;;;;;4976404;28;20265;-80
2023/09/07 12:09:09;;;;;;;;;;;29.10;99.90;;;;;;4976587;28;20360;-80
2023/09/07 12:11:35;;;;;;;;;;;29.10;99.90;;;;;;4976006;28;19922;-79
2023/09/07 12:14:00;;;;;;;;;;;29.10;99.90;;;;;;4975891;28;19929;-80
2023/09/07 12:16:26;;;;;;;;;;;29.10;99.90;;;;;;4976113;28;19926;-80
2023/09/07 12:18:52;;;;;;;;;;;29.10;99.90;;;;;;4977058;28;20328;-79
2023/09/07 12:21:17;;;;;;;;;;;29.20;99.90;;;;;;4976070;28;19930;-80
2023/09/07 12:23:43;;;;;;;;;;;29.20;99.90;;;;;;4975937;28;20295;-80
2023/09/07 12:26:08;;;;;;;;;;;29.20;99.90;;;;;;4975749;28;19927;-79
2023/09/07 12:28:34;;;;;;;;;;;29.30;99.90;;;;;;4959466;28;19922;-78
2023/09/07 12:30:59;;;;;;;;;;;29.30;99.90;;;;;;4975525;28;19926;-79
2023/09/07 12:33:25;;;;;;;;;;;29.30;99.90;;;;;;4975519;28;19928;-78
2023/09/07 12:35:51;;;;;;;;;;;29.30;99.90;;;;;;4975564;28;19922;-78
2023/09/07 12:38:22;;;;;;;;;;;29.40;99.90;;;;;;4975412;28;19926;-79
2023/09/07 12:40:47;;;;;;;;;;;29.40;99.90;;;;;;4975392;28;20060;-79
2023/09/07 12:43:14;;;;;;;;;;;29.40;99.90;;;;;;4975482;28;19926;-80
2023/09/07 12:45:40;;;;;;;;;;;29.50;99.90;;;;;;4975309;28;19929;-80
2023/09/07 12:48:06;;;;;;;;;;;29.60;99.90;;;;;;4975124;28;19934;-79
2023/09/07 12:50:31;;;;;;;;;;;29.70;99.90;;;;;;4975101;28;19928;-79
2023/09/07 12:52:57;;;;;;;;;;;29.60;99.90;;;;;;4975223;28;19922;-79
2023/09/07 12:55:24;;;;;;;;;;;29.60;99.90;;;;;;4975234;28;19929;-79
2023/09/07 12:57:50;;;;;;;;;;;29.60;99.90;;;;;;4976440;28;20296;-79
2023/09/07 13:00:16;;;;;;;;;;;29.60;99.90;;;;;;4975014;28;19933;-80
2023/09/07 13:02:41;;;;;;;;;;;29.70;99.90;;;;;;4974939;28;19929;-79
2023/09/07 13:05:07;;;;;;;;;;;29.70;99.90;;;;;;4976315;28;20343;-80
2023/09/07 13:07:34;;;;;;;;;;;29.80;99.90;;;;;;4975336;28;19922;-79
2023/09/07 13:10:03;;;;;;;;;;;29.80;99.90;;;;;;4974846;28;19969;-78
2023/09/07 13:12:29;;;;;;;;;;;29.80;99.90;;;;;;4975039;28;19929;-79
2023/09/07 13:14:55;;;;;;;;;;;29.80;99.90;;;;;;4975032;28;20313;-79
2023/09/07 13:17:20;;;;;;;;;;;29.90;99.90;;;;;;4974689;28;19929;-79
2023/09/07 13:19:48;;;;;;;;;;;29.90;99.90;;;;;;4974620;28;19926;-80
2023/09/07 13:22:13;;;;;;;;;;;30.00;99.90;;;;;;4974546;28;19928;-79
2023/09/07 13:24:39;;;;;;;;;;;30.00;99.90;;;;;;4976778;28;19926;-78
2023/09/07 13:27:05;;;;;;;;;;;30.00;99.90;;;;;;4974407;28;19922;-80
2023/09/07 13:29:31;;;;;;;;;;;30.00;99.90;;;;;;4974493;28;19922;-79
2023/09/07 13:31:58;;;;;;;;;;;30.10;99.90;;;;;;4974287;28;20402;-78
2023/09/07 13:34:24;;;;;;;;;;;30.20;99.90;;;;;;4974421;28;20008;-79
2023/09/07 13:36:49;;;;;;;;;;;30.20;99.90;;;;;;4974418;28;20371;-80
2023/09/07 13:39:15;;;;;;;;;;;30.10;99.90;;;;;;4974642;28;19922;-79
2023/09/07 13:41:40;;;;;;;;;;;30.10;99.90;;;;;;4974288;28;20315;-79
2023/09/07 13:44:06;;;;;;;;;;;30.20;99.90;;;;;;4974179;28;19930;-81
2023/09/07 13:46:32;;;;;;;;;;;30.10;99.90;;;;;;4974161;28;19930;-79
2023/09/07 13:48:58;;;;;;;;;;;30.10;99.90;;;;;;4974023;28;19923;-80
2023/09/07 13:51:24;;;;;;;;;;;30.20;99.90;;;;;;4974013;28;19930;-79
2023/09/07 13:53:50;;;;;;;;;;;30.10;99.90;;;;;;4974268;28;20010;-80
2023/09/07 13:56:16;;;;;;;;;;;30.10;99.90;;;;;;4974072;28;19973;-80
2023/09/07 13:58:41;;;;;;;;;;;30.10;99.90;;;;;;4975280;28;19922;-80
2023/09/07 14:01:07;;;;;;;;;;;30.10;99.90;;;;;;4974289;28;19929;-79
2023/09/07 14:03:32;;;;;;;;;;;30.10;99.90;;;;;;4973922;28;19926;-80
2023/09/07 14:05:58;;;;;;;;;;;30.10;99.90;;;;;;4973962;28;20004;-80
2023/09/07 14:08:24;;;;;;;;;;;30.20;99.90;;;;;;4975394;28;19922;-79
2023/09/07 14:10:50;;;;;;;;;;;30.20;99.90;;;;;;4974021;28;19922;-80
2023/09/07 14:13:17;;;;;;;;;;;30.20;99.90;;;;;;4975091;28;20294;-80
2023/09/07 14:15:43;;;;;;;;;;;30.20;99.90;;;;;;4975048;28;19930;-80
2023/09/07 14:18:08;;;;;;;;;;;30.20;99.90;;;;;;4974095;28;19985;-80
2023/09/07 14:20:34;;;;;;;;;;;30.20;99.90;;;;;;4973604;28;20379;-78
2023/09/07 14:23:00;;;;;;;;;;;30.20;99.90;;;;;;4975132;28;19972;-81
2023/09/07 14:25:26;;;;;;;;;;;30.10;99.90;;;;;;4957503;28;19930;-80
2023/09/07 14:27:52;;;;;;;;;;;30.10;99.90;;;;;;4973477;28;20387;-80
2023/09/07 14:30:18;;;;;;;;;;;30.10;99.90;;;;;;4973564;28;19922;-79
2023/09/07 14:32:43;;;;;;;;;;;30.20;99.90;;;;;;4973578;28;20290;-79
2023/09/07 14:35:09;;;;;;;;;;;30.20;99.90;;;;;;4957752;28;19945;-79
2023/09/07 14:37:36;;;;;;;;;;;30.10;99.90;;;;;;4973488;28;20395;-79
2023/09/07 14:40:02;;;;;;;;;;;30.10;99.90;;;;;;4957710;28;19972;-79
2023/09/07 14:42:28;;;;;;;;;;;30.10;99.90;;;;;;4973742;28;20256;-78
2023/09/07 14:44:53;;;;;;;;;;;30.10;99.90;;;;;;4973403;28;19926;-80
2023/09/07 14:47:24;;;;;;;;;;;30.10;99.90;;;;;;4973369;28;19929;-79
2023/09/07 14:49:51;;;;;;;;;;;30.10;99.90;;;;;;4973474;28;19922;-80
2023/09/07 14:52:17;;;;;;;;;;;30.10;99.90;;;;;;4973668;28;19926;-79
2023/09/07 14:54:43;;;;;;;;;;;30.20;99.90;;;;;;4973390;28;19922;-81
2023/09/07 14:57:09;;;;;;;;;;;30.20;99.90;;;;;;4973419;28;19929;-80
2023/09/07 14:59:34;;;;;;;;;;;30.20;99.90;;;;;;4973748;28;20016;-80
2023/09/07 15:02:00;;;;;;;;;;;30.20;99.90;;;;;;4975323;28;20277;-80
2023/09/07 15:04:25;;;;;;;;;;;30.20;99.90;;;;;;4978341;28;19926;-79
2023/09/07 15:06:51;;;;;;;;;;;30.20;99.90;;;;;;4977305;28;19922;-78
2023/09/07 15:09:17;;;;;;;;;;;30.20;99.90;;;;;;4977003;28;19933;-79
2023/09/07 15:11:43;;;;;;;;;;;30.10;99.90;;;;;;4976998;28;19922;-79
2023/09/07 15:14:08;;;;;;;;;;;30.10;99.90;;;;;;4976989;28;20009;-78
2023/09/07 15:16:34;;;;;;;;;;;30.10;99.90;;;;;;4978462;28;19965;-80
2023/09/07 15:19:00;;;;;;;;;;;30.10;99.90;;;;;;4977269;28;20008;-79
2023/09/07 15:21:26;;;;;;;;;;;30.10;99.90;;;;;;4977139;28;19926;-77
2023/09/07 15:23:51;;;;;;;;;;;30.00;99.90;;;;;;4976918;28;20427;-80
2023/09/07 15:26:17;;;;;;;;;;;30.00;99.90;;;;;;4976899;28;19929;-78
2023/09/07 15:28:43;;;;;;;;;;;30.00;99.90;;;;;;4976667;28;19929;-80
2023/09/07 15:31:09;;;;;;;;;;;29.90;99.90;;;;;;4978087;28;19922;-79
2023/09/07 15:33:34;;;;;;;;;;;29.90;99.90;;;;;;4977995;28;20052;-80
2023/09/07 15:36:00;;;;;;;;;;;29.90;99.90;;;;;;4976774;28;19930;-80
2023/09/07 15:38:26;;;;;;;;;;;29.90;99.90;;;;;;4976627;28;19923;-79
2023/09/07 15:40:52;;;;;;;;;;;29.90;99.90;;;;;;4960479;28;19973;-75
2023/09/07 15:43:17;;;;;;;;;;;29.80;99.90;;;;;;4983532;28;19923;-79
2023/09/07 15:45:45;;;;;;;;;;;29.90;99.90;;;;;;4992167;28;19969;-80
2023/09/07 15:48:11;;;;;;;;;;;29.80;99.90;;;;;;4994512;28;19921;-80
2023/09/07 15:50:36;;;;;;;;;;;29.80;99.90;;;;;;4992552;28;19926;-79
2023/09/07 15:53:02;;;;;;;;;;;29.70;99.90;;;;;;4978530;28;20438;-80
2023/09/07 15:55:27;;;;;;;;;;;29.70;99.90;;;;;;4978269;28;20356;-80
2023/09/07 15:57:53;;;;;;;;;;;29.70;99.90;;;;;;4976296;28;19977;-80
2023/09/07 16:00:19;;;;;;;;;;;29.70;99.90;;;;;;4960227;28;19981;-79
2023/09/07 16:02:45;;;;;;;;;;;29.60;99.90;;;;;;4977366;28;19922;-80
2023/09/07 16:05:11;;;;;;;;;;;29.60;99.90;;;;;;4996849;28;19933;-79
2023/09/07 16:07:36;;;;;;;;;;;29.50;99.90;;;;;;4995415;28;19925;-79
2023/09/07 16:10:02;;;;;;;;;;;29.50;99.90;;;;;;4995800;28;19976;-79
2023/09/07 16:12:27;;;;;;;;;;;29.40;99.90;;;;;;4995032;28;19922;-80
2023/09/07 16:14:53;;;;;;;;;;;29.30;99.90;;;;;;4995446;28;19922;-79
2023/09/07 16:17:18;;;;;;;;;;;29.30;99.90;;;;;;4995392;28;19929;-80
2023/09/07 16:19:44;;;;;;;;;;;29.20;99.90;;;;;;4995324;28;19922;-81
2023/09/07 16:22:09;;;;;;;;;;;29.10;99.90;;;;;;4995309;28;19928;-79
2023/09/07 16:24:35;;;;;;;;;;;29.00;99.90;;;;;;4995280;28;19932;-79
2023/09/07 16:27:01;;;;;;;;;;;28.90;99.90;;;;;;4995257;28;19922;-79
2023/09/07 16:29:26;;;;;;;;;;;28.80;99.90;;;;;;4995192;28;19926;-78
2023/09/07 16:31:52;;;;;;;;;;;28.70;99.90;;;;;;4994982;28;19929;-79
2023/09/07 16:34:18;;;;;;;;;;;28.60;99.90;;;;;;4979124;28;19921;-79
2023/09/07 16:36:44;;;;;;;;;;;28.50;99.90;;;;;;4995026;28;19922;-80
2023/09/07 16:39:10;;;;;;;;;;;28.40;99.90;;;;;;4995854;28;20016;-79
2023/09/07 16:41:36;;;;;;;;;;;28.30;99.90;;;;;;4994978;28;20446;-79
2023/09/07 16:44:01;;;;;;;;;;;28.20;99.90;;;;;;4994938;28;19983;-79
2023/09/07 16:46:27;;;;;;;;;;;28.10;99.90;;;;;;4996384;28;19928;-79
2023/09/07 16:48:52;;;;;;;;;;;28.10;99.90;;;;;;4994769;28;19977;-79
2023/09/07 16:51:28;;;;;;;;;;;;;;;;;;;;;
2023/09/07 16:53:54;;;;;;;;;;;27.90;99.90;;;;;;4993804;28;19929;-80
2023/09/07 16:56:20;;;;;;;;;;;27.80;99.90;;;;;;4995965;28;20379;-81
2023/09/07 16:58:46;;;;;;;;;;;27.70;99.90;;;;;;4994680;28;19972;-81
2023/09/07 17:01:12;;;;;;;;;;;27.60;99.90;;;;;;4994392;28;20354;-78
2023/09/07 17:03:37;;;;;;;;;;;27.50;99.90;;;;;;4994418;28;20338;-79
2023/09/07 17:06:03;;;;;;;;;;;27.50;99.90;;;;;;4994807;28;20346;-79
2023/09/07 17:08:28;;;;;;;;;;;27.40;99.90;;;;;;4994418;28;20426;-80
2023/09/07 17:10:54;;;;;;;;;;;27.30;99.90;;;;;;4994786;28;19921;-79
2023/09/07 17:13:20;;;;;;;;;;;27.20;99.90;;;;;;4994395;28;20268;-80